Time,TemperatureF,DewpointF,PressureIn,WindDirection,WindDirectionDegrees,WindSpeedMPH,WindSpeedGustMPH,Humidity,HourlyPrecipIn,Conditions,Clouds,dailyrainin,SoftwareType,DateUTC
2013-03-04 00:02:00,54.7,43.1,29.97,East,90,0.0,1.6,65,0.00,,,0.00,WUHU21623XXSP,2013-03-04 08:02:00,
2013-03-04 00:07:00,54.7,43.1,29.97,North,0,1.4,1.6,65,0.00,,,0.00,WUHU21623XXSP,2013-03-04 08:07:00,
2013-03-04 00:12:00,54.9,43.3,29.97,NNE,22,1.3,1.6,65,0.00,,,0.00,WUHU21623XXSP,2013-03-04 08:12:00,
2013-03-04 00:17:00,54.9,43.3,29.97,NE,45,0.0,1.3,65,0.00,,,0.00,WUHU21623XXSP,2013-03-04 08:17:00,
2013-03-04 00:22:00,54.9,43.3,29.97,North,0,2.2,2.2,65,0.00,,,0.00,WUHU21623XXSP,2013-03-04 08:22:00,
2013-03-04 00:27:00,55.0,43.8,29.97,North,352,2.0,3.8,66,0.00,,,0.00,WUHU21623XXSP,2013-03-04 08:27:00,
2013-03-04 00:32:00,55.0,43.8,29.97,North,0,0.0,3.8,66,0.00,,,0.00,WUHU21623XXSP,2013-03-04 08:32:00,
2013-03-04 00:37:00,55.0,43.8,29.98,North,0,0.0,3.4,66,0.00,,,0.00,WUHU21623XXSP,2013-03-04 08:37:00,
2013-03-04 00:42:00,55.2,44.0,29.98,North,0,1.6,3.6,66,0.00,,,0.00,WUHU21623XXSP,2013-03-04 08:42:00,
2013-03-04 00:47:00,55.0,43.8,29.98,North,350,2.2,3.6,66,0.00,,,0.00,WUHU21623XXSP,2013-03-04 08:47:00,
2013-03-04 00:52:00,55.0,43.4,29.98,NE,45,0.0,2.7,65,0.00,,,0.00,WUHU21623XXSP,2013-03-04 08:52:00,
2013-03-04 00:57:00,55.0,43.8,29.99,ENE,67,0.0,0.0,66,0.00,,,0.00,WUHU21623XXSP,2013-03-04 08:57:00,
2013-03-04 01:02:00,55.0,43.8,29.99,NNW,337,0.0,0.0,66,0.00,,,0.00,WUHU21623XXSP,2013-03-04 09:02:00,
2013-03-04 01:07:00,55.0,43.8,29.99,North,0,1.6,1.8,66,0.00,,,0.00,WUHU21623XXSP,2013-03-04 09:07:00,
2013-03-04 01:12:00,55.0,43.8,29.99,North,352,1.6,4.5,66,0.00,,,0.00,WUHU21623XXSP,2013-03-04 09:12:00,
2013-03-04 01:17:00,55.0,43.8,29.99,NNW,348,1.7,4.5,66,0.00,,,0.00,WUHU21623XXSP,2013-03-04 09:17:00,
2013-03-04 01:22:00,55.0,43.8,29.99,North,0,1.1,3.6,66,0.00,,,0.00,WUHU21623XXSP,2013-03-04 09:22:00,
2013-03-04 01:27:00,54.9,43.7,29.99,NNE,22,0.0,3.6,66,0.00,,,0.00,WUHU21623XXSP,2013-03-04 09:27:00,
2013-03-04 01:32:00,54.7,43.1,29.98,North,0,0.0,0.0,65,0.00,,,0.00,WUHU21623XXSP,2013-03-04 09:32:00,
2013-03-04 01:37:00,54.5,43.3,29.99,North,0,0.0,0.0,66,0.00,,,0.00,WUHU21623XXSP,2013-03-04 09:37:00,
2013-03-04 01:42:00,54.3,43.2,29.99,NNW,337,0.0,0.0,66,0.00,,,0.00,WUHU21623XXSP,2013-03-04 09:42:00,
2013-03-04 01:47:00,54.1,43.0,29.99,NNW,337,0.0,0.0,66,0.00,,,0.00,WUHU21623XXSP,2013-03-04 09:47:00,
2013-03-04 01:52:00,54.0,42.8,29.99,ENE,67,0.0,0.0,66,0.00,,,0.00,WUHU21623XXSP,2013-03-04 09:52:00,
2013-03-04 01:57:00,54.0,43.2,29.99,NNE,22,0.0,0.0,67,0.00,,,0.00,WUHU21623XXSP,2013-03-04 09:57:00,
2013-03-04 02:02:00,54.0,43.2,29.99,NNE,22,0.0,0.0,67,0.00,,,0.00,WUHU21623XXSP,2013-03-04 10:02:00,
2013-03-04 02:07:00,54.1,43.4,30.00,North,0,0.0,1.8,67,0.00,,,0.00,WUHU21623XXSP,2013-03-04 10:07:00,
2013-03-04 02:13:00,54.1,43.4,30.00,North,0,0.0,1.8,67,0.00,,,0.00,WUHU21623XXSP,2013-03-04 10:13:00,
2013-03-04 02:18:00,54.3,43.2,30.00,ENE,67,0.0,0.0,66,0.00,,,0.00,WUHU21623XXSP,2013-03-04 10:18:00,
2013-03-04 02:23:00,54.1,43.0,29.99,NW,315,0.0,1.1,66,0.00,,,0.00,WUHU21623XXSP,2013-03-04 10:23:00,
2013-03-04 02:28:00,54.1,43.0,30.00,NNE,22,0.0,1.6,66,0.00,,,0.00,WUHU21623XXSP,2013-03-04 10:28:00,
2013-03-04 02:33:00,54.1,43.4,30.00,NNW,337,0.0,1.6,67,0.00,,,0.00,WUHU21623XXSP,2013-03-04 10:33:00,
2013-03-04 02:38:00,54.0,42.8,29.99,WNW,292,0.0,1.1,66,0.00,,,0.00,WUHU21623XXSP,2013-03-04 10:38:00,
2013-03-04 02:43:00,54.0,42.8,29.99,NNW,337,0.0,0.0,66,0.00,,,0.00,WUHU21623XXSP,2013-03-04 10:43:00,
2013-03-04 02:48:00,53.8,42.6,29.99,NNW,337,0.0,0.0,66,0.00,,,0.00,WUHU21623XXSP,2013-03-04 10:48:00,
2013-03-04 02:53:00,53.4,42.3,29.99,NNW,337,0.0,0.0,66,0.00,,,0.00,WUHU21623XXSP,2013-03-04 10:53:00,
2013-03-04 02:58:00,53.4,42.7,29.99,NNW,337,0.0,0.0,67,0.00,,,0.00,WUHU21623XXSP,2013-03-04 10:58:00,
2013-03-04 03:03:00,53.2,42.5,29.99,WNW,292,0.0,0.0,67,0.00,,,0.00,WUHU21623XXSP,2013-03-04 11:03:00,
2013-03-04 03:08:00,52.9,42.2,29.99,WNW,292,0.0,0.0,67,0.00,,,0.00,WUHU21623XXSP,2013-03-04 11:08:00,
2013-03-04 03:13:00,52.9,42.2,30.00,WNW,292,0.0,0.0,67,0.00,,,0.00,WUHU21623XXSP,2013-03-04 11:13:00,
2013-03-04 03:18:00,52.5,41.9,30.00,WNW,292,0.0,0.0,67,0.00,,,0.00,WUHU21623XXSP,2013-03-04 11:18:00,
2013-03-04 03:23:00,52.3,42.1,29.99,NW,315,0.0,0.0,68,0.00,,,0.00,WUHU21623XXSP,2013-03-04 11:23:00,
2013-03-04 03:25:00,52.3,42.1,29.99,WNW,292,1.3,5.1,68,0.00,,,0.00,WUHU21623XXSP,2013-03-04 11:25:00,
2013-03-04 04:25:00,49.1,39.8,29.99,West,270,0.0,0.0,70,0.00,,,0.00,WUHU21623XXSP,2013-03-04 12:25:00,
2013-03-04 05:25:00,46.2,38.4,30.00,WNW,293,0.0,0.0,74,0.00,,,0.00,WUHU21623XXSP,2013-03-04 13:25:00,
2013-03-04 06:25:00,44.8,38.4,30.02,SW,225,0.0,0.0,78,0.00,,,0.00,WUHU21623XXSP,2013-03-04 14:25:00,
2013-03-04 07:10:00,47.7,41.1,30.03,SSW,202,0.0,0.0,78,0.00,,,0.00,WUHU21623XXSP,2013-03-04 15:10:00,
2013-03-04 07:15:00,48.2,41.6,30.04,WSW,247,0.0,0.0,78,0.00,,,0.00,WUHU21623XXSP,2013-03-04 15:15:00,
2013-03-04 07:19:00,49.1,42.5,30.04,WSW,247,0.0,0.0,78,0.00,,,0.00,WUHU21623XXSP,2013-03-04 15:19:00,
2013-03-04 07:24:00,50.5,43.6,30.04,WSW,240,1.5,2.0,77,0.00,,,0.00,WUHU21623XXSP,2013-03-04 15:24:00,
2013-03-04 07:30:00,52.2,44.5,30.04,SW,225,1.6,2.0,75,0.00,,,0.00,WUHU21623XXSP,2013-03-04 15:30:00,
2013-03-04 07:35:00,53.4,45.0,30.05,West,270,0.0,1.6,73,0.00,,,0.00,WUHU21623XXSP,2013-03-04 15:35:00,
2013-03-04 07:41:00,55.2,46.0,30.05,West,270,0.0,1.3,71,0.00,,,0.00,WUHU21623XXSP,2013-03-04 15:41:00,
2013-03-04 07:46:00,56.3,46.3,30.05,WSW,247,0.7,1.6,69,0.00,,,0.00,WUHU21623XXSP,2013-03-04 15:46:00,
2013-03-04 07:51:00,57.6,46.6,30.05,West,270,0.0,1.6,67,0.00,,,0.00,WUHU21623XXSP,2013-03-04 15:51:00,
2013-03-04 07:56:00,58.6,46.9,30.05,SSW,202,0.0,0.0,65,0.00,,,0.00,WUHU21623XXSP,2013-03-04 15:56:00,
2013-03-04 08:01:00,59.7,47.5,30.05,West,270,0.0,0.0,64,0.00,,,0.00,WUHU21623XXSP,2013-03-04 16:01:00,
2013-03-04 08:06:00,61.0,47.5,30.05,SW,225,0.0,0.0,61,0.00,,,0.00,WUHU21623XXSP,2013-03-04 16:06:00,
2013-03-04 08:11:00,62.1,48.1,30.05,West,270,0.0,1.3,60,0.00,,,0.00,WUHU21623XXSP,2013-03-04 16:11:00,
2013-03-04 08:17:00,63.1,48.1,30.05,NW,315,0.0,1.3,58,0.00,,,0.00,WUHU21623XXSP,2013-03-04 16:17:00,
2013-03-04 08:22:00,64.2,48.6,30.05,SW,225,1.8,2.2,57,0.00,,,0.00,WUHU21623XXSP,2013-03-04 16:22:00,
2013-03-04 08:27:00,64.9,48.3,30.05,WSW,247,0.9,2.2,55,0.00,,,0.00,WUHU21623XXSP,2013-03-04 16:27:00,
2013-03-04 08:32:00,65.1,48.0,30.05,SW,225,0.0,2.9,54,0.00,,,0.00,WUHU21623XXSP,2013-03-04 16:32:00,
2013-03-04 08:37:00,65.7,48.0,30.05,SW,214,3.3,4.9,53,0.00,,,0.00,WUHU21623XXSP,2013-03-04 16:37:00,
2013-03-04 08:42:00,65.5,47.4,30.05,South,180,1.3,4.9,52,0.00,,,0.00,WUHU21623XXSP,2013-03-04 16:42:00,
2013-03-04 08:48:00,65.1,47.0,30.05,SSW,205,2.1,4.0,52,0.00,,,0.00,WUHU21623XXSP,2013-03-04 16:48:00,
2013-03-04 08:53:00,65.5,47.4,30.05,SW,218,3.0,4.5,52,0.00,,,0.00,WUHU21623XXSP,2013-03-04 16:53:00,
2013-03-04 08:58:00,66.2,48.1,30.06,SSW,202,0.7,4.5,52,0.00,,,0.00,WUHU21623XXSP,2013-03-04 16:58:00,
2013-03-04 09:03:00,67.3,48.6,30.07,SW,225,5.4,6.9,51,0.00,,,0.00,WUHU21623XXSP,2013-03-04 17:03:00,
2013-03-04 09:08:00,67.3,48.1,30.07,SSW,210,2.6,6.9,50,0.00,,,0.00,WUHU21623XXSP,2013-03-04 17:08:00,
2013-03-04 09:13:00,67.8,48.6,30.07,WSW,247,1.6,3.8,50,0.00,,,0.00,WUHU21623XXSP,2013-03-04 17:13:00,
2013-03-04 09:19:00,68.5,48.6,30.07,SSW,202,0.0,4.0,49,0.00,,,0.00,WUHU21623XXSP,2013-03-04 17:19:00,
2013-03-04 09:24:00,69.6,48.8,30.07,WSW,247,2.9,4.0,48,0.00,,,0.00,WUHU21623XXSP,2013-03-04 17:24:00,
2013-03-04 09:29:00,70.5,48.6,30.07,West,270,0.0,4.0,46,0.00,,,0.00,WUHU21623XXSP,2013-03-04 17:29:00,
2013-03-04 09:34:00,71.6,49.0,30.06,SW,225,2.7,4.0,45,0.00,,,0.00,WUHU21623XXSP,2013-03-04 17:34:00,
2013-03-04 09:39:00,72.1,48.9,30.06,NW,315,0.7,3.6,44,0.00,,,0.00,WUHU21623XXSP,2013-03-04 17:39:00,
2013-03-04 09:44:00,73.2,49.3,30.06,West,273,2.6,4.5,43,0.00,,,0.00,WUHU21623XXSP,2013-03-04 17:44:00,
2013-03-04 09:49:00,73.8,49.8,30.06,WSW,243,1.9,4.5,43,0.00,,,0.00,WUHU21623XXSP,2013-03-04 17:49:00,
2013-03-04 09:55:00,74.5,49.2,30.07,WSW,242,2.5,4.5,41,0.00,,,0.00,WUHU21623XXSP,2013-03-04 17:55:00,
2013-03-04 10:00:00,74.8,49.0,30.06,NW,306,3.4,5.4,40,0.00,,,0.00,WUHU21623XXSP,2013-03-04 18:00:00,
2013-03-04 10:05:00,75.0,49.0,30.07,WSW,247,0.0,5.4,40,0.00,,,0.00,WUHU21623XXSP,2013-03-04 18:05:00,
2013-03-04 10:10:00,75.0,49.1,30.07,NW,315,5.8,5.8,40,0.00,,,0.00,WUHU21623XXSP,2013-03-04 18:10:00,
2013-03-04 10:15:00,74.8,49.0,30.07,NW,313,2.1,6.9,40,0.00,,,0.00,WUHU21623XXSP,2013-03-04 18:15:00,
2013-03-04 10:20:00,75.4,49.4,30.07,NW,305,3.0,6.5,40,0.00,,,0.00,WUHU21623XXSP,2013-03-04 18:20:00,
2013-03-04 10:25:00,75.9,49.2,30.07,WNW,297,2.7,5.1,39,0.00,,,0.00,WUHU21623XXSP,2013-03-04 18:25:00,
2013-03-04 10:31:00,76.1,49.3,30.07,NW,318,2.4,5.1,39,0.00,,,0.00,WUHU21623XXSP,2013-03-04 18:31:00,
2013-03-04 10:36:00,76.6,49.1,30.06,SW,219,2.0,6.5,38,0.00,,,0.00,WUHU21623XXSP,2013-03-04 18:36:00,
2013-03-04 10:41:00,76.6,49.1,30.06,NW,315,3.7,7.2,38,0.00,,,0.00,WUHU21623XXSP,2013-03-04 18:41:00,
2013-03-04 10:46:00,76.8,49.2,30.06,WNW,302,3.3,7.2,38,0.00,,,0.00,WUHU21623XXSP,2013-03-04 18:46:00,
2013-03-04 10:51:00,77.0,49.4,30.06,WSW,248,1.9,4.5,38,0.00,,,0.00,WUHU21623XXSP,2013-03-04 18:51:00,
2013-03-04 10:56:00,77.2,48.8,30.06,South,186,3.0,4.9,37,0.00,,,0.00,WUHU21623XXSP,2013-03-04 18:56:00,
2013-03-04 11:01:00,76.5,48.9,30.05,WSW,247,0.0,4.9,38,0.00,,,0.00,WUHU21623XXSP,2013-03-04 19:01:00,
2013-03-04 11:06:00,76.8,49.2,30.05,North,0,4.5,4.5,38,0.00,,,0.00,WUHU21623XXSP,2013-03-04 19:06:00,
2013-03-04 11:12:00,75.9,48.4,30.05,NNW,337,5.6,6.7,38,0.00,,,0.00,WUHU21623XXSP,2013-03-04 19:12:00,
2013-03-04 11:17:00,74.5,47.9,30.05,West,270,0.0,6.7,39,0.00,,,0.00,WUHU21623XXSP,2013-03-04 19:17:00,
2013-03-04 11:22:00,74.1,47.6,30.05,NE,36,2.3,6.7,39,0.00,,,0.00,WUHU21623XXSP,2013-03-04 19:22:00,
2013-03-04 11:27:00,72.5,46.9,30.05,NW,325,3.3,6.7,40,0.00,,,0.00,WUHU21623XXSP,2013-03-04 19:27:00,
2013-03-04 11:32:00,73.2,47.5,30.05,North,354,3.2,5.6,40,0.00,,,0.00,WUHU21623XXSP,2013-03-04 19:32:00,
2013-03-04 11:37:00,74.8,49.0,30.05,WNW,289,1.8,6.7,40,0.00,,,0.00,WUHU21623XXSP,2013-03-04 19:37:00,
2013-03-04 11:43:00,76.1,49.3,30.05,NW,315,4.7,6.7,39,0.00,,,0.00,WUHU21623XXSP,2013-03-04 19:43:00,
2013-03-04 11:48:00,76.8,49.2,30.05,North,0,1.9,6.3,38,0.00,,,0.00,WUHU21623XXSP,2013-03-04 19:48:00,
2013-03-04 11:53:00,76.8,48.5,30.04,NNE,22,5.4,6.7,37,0.00,,,0.00,WUHU21623XXSP,2013-03-04 19:53:00,
2013-03-04 11:58:00,75.0,47.6,30.04,ENE,63,2.2,6.7,38,0.00,,,0.00,WUHU21623XXSP,2013-03-04 19:58:00,
2013-03-04 12:03:00,74.7,47.3,30.03,WNW,292,4.5,8.9,38,0.00,,,0.00,WUHU21623XXSP,2013-03-04 20:03:00,
2013-03-04 12:08:00,75.4,47.9,30.03,North,354,5.1,8.9,38,0.00,,,0.00,WUHU21623XXSP,2013-03-04 20:08:00,
2013-03-04 12:13:00,74.5,47.1,30.03,North,350,5.2,10.1,38,0.00,,,0.00,WUHU21623XXSP,2013-03-04 20:13:00,
2013-03-04 12:19:00,74.1,47.6,30.03,NNW,347,4.2,8.5,39,0.00,,,0.00,WUHU21623XXSP,2013-03-04 20:19:00,
2013-03-04 12:24:00,73.9,47.4,30.02,North,8,3.0,7.6,39,0.00,,,0.00,WUHU21623XXSP,2013-03-04 20:24:00,
2013-03-04 12:29:00,74.3,47.7,30.02,WNW,292,3.8,6.9,39,0.00,,,0.00,WUHU21623XXSP,2013-03-04 20:29:00,
2013-03-04 12:34:00,75.7,48.3,30.02,West,280,3.1,6.9,38,0.00,,,0.00,WUHU21623XXSP,2013-03-04 20:34:00,
2013-03-04 12:39:00,76.8,48.5,30.01,WNW,301,3.0,8.1,37,0.00,,,0.00,WUHU21623XXSP,2013-03-04 20:39:00,
2013-03-04 12:44:00,77.5,49.1,30.01,WNW,292,2.7,8.1,37,0.00,,,0.00,WUHU21623XXSP,2013-03-04 20:44:00,
2013-03-04 12:49:00,78.6,49.3,30.01,North,0,8.5,8.5,36,0.00,,,0.00,WUHU21623XXSP,2013-03-04 20:49:00,
2013-03-04 12:55:00,77.7,47.7,30.02,NNW,348,4.8,8.5,35,0.00,,,0.00,WUHU21623XXSP,2013-03-04 20:55:00,
2013-03-04 13:00:00,75.7,46.7,30.01,WNW,292,4.7,8.3,36,0.00,,,0.00,WUHU21623XXSP,2013-03-04 21:00:00,
2013-03-04 13:05:00,75.7,46.7,30.01,WNW,292,4.0,6.3,36,0.00,,,0.00,WUHU21623XXSP,2013-03-04 21:05:00,
2013-03-04 13:10:00,75.4,46.4,30.01,NNW,333,2.0,8.5,36,0.00,,,0.00,WUHU21623XXSP,2013-03-04 21:10:00,
2013-03-04 13:15:00,75.7,46.7,30.01,WNW,295,2.0,8.5,36,0.00,,,0.00,WUHU21623XXSP,2013-03-04 21:15:00,
2013-03-04 13:20:00,76.8,47.7,30.00,NW,315,4.7,7.4,36,0.00,,,0.00,WUHU21623XXSP,2013-03-04 21:20:00,
2013-03-04 13:25:00,77.2,48.0,30.00,NNW,337,7.4,7.4,36,0.00,,,0.00,WUHU21623XXSP,2013-03-04 21:25:00,
2013-03-04 13:31:00,76.6,46.8,30.00,NNW,337,4.7,8.5,35,0.00,,,0.00,WUHU21623XXSP,2013-03-04 21:31:00,
2013-03-04 13:36:00,75.7,45.2,30.00,North,0,6.3,8.7,34,0.00,,,0.00,WUHU21623XXSP,2013-03-04 21:36:00,
2013-03-04 13:41:00,74.8,45.9,30.00,NNW,342,3.2,8.7,36,0.00,,,0.00,WUHU21623XXSP,2013-03-04 21:41:00,
2013-03-04 13:46:00,74.8,45.9,30.00,NW,308,2.8,8.3,36,0.00,,,0.00,WUHU21623XXSP,2013-03-04 21:46:00,
2013-03-04 13:51:00,76.1,47.1,29.99,WNW,298,1.8,6.7,36,0.00,,,0.00,WUHU21623XXSP,2013-03-04 21:51:00,
2013-03-04 13:56:00,77.4,47.4,29.99,WSW,247,1.6,5.1,35,0.00,,,0.00,WUHU21623XXSP,2013-03-04 21:56:00,
2013-03-04 14:01:00,77.9,47.1,29.99,SW,219,1.6,6.5,34,0.00,,,0.00,WUHU21623XXSP,2013-03-04 22:01:00,
2013-03-04 14:07:00,78.4,46.8,29.99,West,268,2.1,6.5,33,0.00,,,0.00,WUHU21623XXSP,2013-03-04 22:07:00,
2013-03-04 14:12:00,78.4,46.8,29.98,North,354,2.8,5.4,33,0.00,,,0.00,WUHU21623XXSP,2013-03-04 22:12:00,
2013-03-04 14:17:00,77.5,46.0,29.99,NNE,33,3.3,6.7,33,0.00,,,0.00,WUHU21623XXSP,2013-03-04 22:17:00,
2013-03-04 14:23:00,75.2,44.7,29.99,NE,51,3.9,6.7,34,0.00,,,0.00,WUHU21623XXSP,2013-03-04 22:23:00,
2013-03-04 14:28:00,73.6,43.3,29.98,North,358,3.1,6.3,34,0.00,,,0.00,WUHU21623XXSP,2013-03-04 22:28:00,
2013-03-04 14:33:00,73.2,44.5,29.98,NNW,339,4.4,7.2,36,0.00,,,0.00,WUHU21623XXSP,2013-03-04 22:33:00,
2013-03-04 14:38:00,73.8,45.0,29.98,NW,315,5.1,7.2,36,0.00,,,0.00,WUHU21623XXSP,2013-03-04 22:38:00,
2013-03-04 14:43:00,74.5,44.9,29.98,NW,322,1.8,5.6,35,0.00,,,0.00,WUHU21623XXSP,2013-03-04 22:43:00,
2013-03-04 14:49:00,75.7,46.7,29.98,NW,317,2.4,5.6,36,0.00,,,0.00,WUHU21623XXSP,2013-03-04 22:49:00,
2013-03-04 14:54:00,76.5,45.9,29.98,NE,45,0.0,4.7,34,0.00,,,0.00,WUHU21623XXSP,2013-03-04 22:54:00,
2013-03-04 14:59:00,76.3,45.7,29.98,WSW,247,1.1,3.6,34,0.00,,,0.00,WUHU21623XXSP,2013-03-04 22:59:00,
2013-03-04 15:04:00,76.8,45.4,29.98,West,270,2.5,4.3,33,0.00,,,0.00,WUHU21623XXSP,2013-03-04 23:04:00,
2013-03-04 15:09:00,77.2,45.8,29.98,NW,317,3.6,6.7,33,0.00,,,0.00,WUHU21623XXSP,2013-03-04 23:09:00,
2013-03-04 15:14:00,76.8,45.4,29.98,NNW,332,3.8,6.7,33,0.00,,,0.00,WUHU21623XXSP,2013-03-04 23:14:00,
2013-03-04 15:19:00,76.8,45.4,29.97,West,270,0.0,5.8,33,0.00,,,0.00,WUHU21623XXSP,2013-03-04 23:19:00,
2013-03-04 15:24:00,76.8,45.4,29.97,NE,45,6.0,6.0,33,0.00,,,0.00,WUHU21623XXSP,2013-03-04 23:24:00,
2013-03-04 15:30:00,76.1,44.8,29.97,North,0,4.0,8.5,33,0.00,,,0.00,WUHU21623XXSP,2013-03-04 23:30:00,
2013-03-04 15:35:00,74.3,43.3,29.97,North,8,1.5,8.5,33,0.00,,,0.00,WUHU21623XXSP,2013-03-04 23:35:00,
2013-03-04 15:40:00,73.8,43.4,29.97,NE,45,2.0,5.4,34,0.00,,,0.00,WUHU21623XXSP,2013-03-04 23:40:00,
2013-03-04 15:45:00,73.2,43.0,29.97,NE,45,1.9,2.7,34,0.00,,,0.00,WUHU21623XXSP,2013-03-04 23:45:00,
2013-03-04 15:50:00,73.2,43.7,29.97,NW,324,2.4,4.0,35,0.00,,,0.00,WUHU21623XXSP,2013-03-04 23:50:00,
2013-03-04 15:55:00,73.9,44.4,29.97,WNW,292,2.0,4.0,35,0.00,,,0.00,WUHU21623XXSP,2013-03-04 23:55:00,
2013-03-04 16:01:00,74.5,44.9,29.97,WSW,247,0.0,3.8,35,0.00,,,0.00,WUHU21623XXSP,2013-03-05 00:01:00,
2013-03-04 16:06:00,74.3,43.9,29.97,North,356,2.8,4.7,34,0.00,,,0.00,WUHU21623XXSP,2013-03-05 00:06:00,
2013-03-04 16:11:00,73.2,43.0,29.97,NNE,30,1.0,4.7,34,0.00,,,0.00,WUHU21623XXSP,2013-03-05 00:11:00,
2013-03-04 16:16:00,72.3,43.0,29.97,NNW,341,2.1,3.1,35,0.00,,,0.00,WUHU21623XXSP,2013-03-05 00:16:00,
2013-03-04 16:21:00,72.0,42.7,29.97,North,358,4.4,6.3,35,0.00,,,0.00,WUHU21623XXSP,2013-03-05 00:21:00,
2013-03-04 16:26:00,71.8,43.2,29.97,North,349,1.7,6.9,36,0.00,,,0.00,WUHU21623XXSP,2013-03-05 00:26:00,
2013-03-04 16:31:00,72.0,43.4,29.97,SW,225,2.5,6.9,36,0.00,,,0.00,WUHU21623XXSP,2013-03-05 00:31:00,
2013-03-04 16:37:00,72.3,43.7,29.97,NW,320,1.7,3.4,36,0.00,,,0.00,WUHU21623XXSP,2013-03-05 00:37:00,
2013-03-04 16:42:00,72.5,43.9,29.96,NW,315,2.0,3.4,36,0.00,,,0.00,WUHU21623XXSP,2013-03-05 00:42:00,
2013-03-04 16:47:00,72.5,43.9,29.97,NNW,337,0.0,2.5,36,0.00,,,0.00,WUHU21623XXSP,2013-03-05 00:47:00,
2013-03-04 16:52:00,72.3,45.2,29.97,NNW,346,1.8,4.3,38,0.00,,,0.00,WUHU21623XXSP,2013-03-05 00:52:00,
2013-03-04 16:57:00,72.0,44.9,29.97,NW,315,2.9,4.3,38,0.00,,,0.00,WUHU21623XXSP,2013-03-05 00:57:00,
2013-03-04 17:02:00,71.6,45.3,29.97,NNE,22,2.9,4.5,39,0.00,,,0.00,WUHU21623XXSP,2013-03-05 01:02:00,
2013-03-04 17:07:00,70.7,44.5,29.97,North,352,3.6,5.4,39,0.00,,,0.00,WUHU21623XXSP,2013-03-05 01:07:00,
2013-03-04 17:13:00,70.2,44.7,29.97,NW,318,4.4,8.1,40,0.00,,,0.00,WUHU21623XXSP,2013-03-05 01:13:00,
2013-03-04 17:25:00,69.4,44.6,29.96,NW,315,0.0,0.0,41,0.00,,,0.00,WUHU21623XXSP,2013-03-05 01:25:00,
2013-03-04 18:25:00,64.2,42.9,29.95,WNW,293,0.0,0.0,46,0.00,,,0.00,WUHU21623XXSP,2013-03-05 02:25:00,
2013-03-04 19:25:00,59.7,42.6,29.94,WNW,293,0.0,0.0,53,0.00,,,0.00,WUHU21623XXSP,2013-03-05 03:25:00,
2013-03-04 20:25:00,56.8,42.3,29.95,ENE,68,0.0,0.0,58,0.00,,,0.00,WUHU21623XXSP,2013-03-05 04:25:00,
2013-03-04 21:25:00,55.0,42.8,29.98,SE,135,0.0,0.0,63,0.00,,,0.00,WUHU21623XXSP,2013-03-05 05:25:00,
2013-03-04 22:25:00,53.2,42.3,29.97,ESE,113,0.0,0.0,66,0.00,,,0.00,WUHU21623XXSP,2013-03-05 06:25:00,
2013-03-04 23:25:00,52.3,42.2,29.96,SE,135,0.0,0.0,68,0.00,,,0.00,WUHU21623XXSP,2013-03-05 07:25:00,